Time;durP1;ratioP1;P1;durP2;ratioP2;P2;SDS_P1;SDS_P2;PMS_P1;PMS_P2;Temp;Humidity;BMP_temperature;BMP_pressure;BME280_temperature;BME280_humidity;BME280_pressure;Samples;Min_cycle;Max_cycle;Signal;HPM_P1;HPM_P2
2022/01/17 00:00:08;;;;;;;27.33;8.07;;;;;;;4.72;100.00;102880.97;1023654;28;20302;-77
2022/01/17 00:00:40;;;;;;;20.45;6.30;;;;;;;4.72;100.00;102878.34;1027253;28;20293;-77
2022/01/17 00:01:13;;;;;;;23.52;7.38;;;;;;;4.73;100.00;102874.72;1031328;28;20711;-77
2022/01/17 00:01:45;;;;;;;29.67;6.97;;;;;;;4.74;100.00;102875.56;1027100;28;20406;-77
2022/01/17 00:02:18;;;;;;;30.30;7.75;;;;;;;4.71;100.00;102875.81;1028178;28;20274;-77
2022/01/17 00:02:53;;;;;;;21.55;6.85;;;;;;;4.73;100.00;102868.63;1027071;28;20365;-77
2022/01/17 00:03:25;;;;;;;29.70;6.55;;;;;;;4.71;100.00;102881.09;1028386;28;20281;-77
2022/01/17 00:03:57;;;;;;;20.80;7.22;;;;;;;4.70;100.00;102875.00;1030505;28;20285;-77
2022/01/17 00:04:28;;;;;;;26.10;6.47;;;;;;;4.70;100.00;102874.16;1028380;28;20762;-77
2022/01/17 00:05:00;;;;;;;24.27;6.95;;;;;;;4.72;100.00;102877.50;1029145;28;20304;-77
2022/01/17 00:05:32;;;;;;;26.70;6.93;;;;;;;4.72;100.00;102872.22;1028134;28;20393;-77
2022/01/17 00:06:03;;;;;;;23.35;6.03;;;;;;;4.73;100.00;102879.19;1028003;28;20792;-77
2022/01/17 00:06:35;;;;;;;26.92;6.53;;;;;;;4.74;100.00;102875.56;1023826;29;20309;-78
2022/01/17 00:07:06;;;;;;;31.15;6.63;;;;;;;4.73;100.00;102879.19;1024050;29;20754;-77
2022/01/17 00:07:38;;;;;;;21.08;5.72;;;;;;;4.73;100.00;102879.19;1020464;29;20676;-77
2022/01/17 00:08:10;;;;;;;25.67;5.38;;;;;;;4.73;100.00;102869.44;1024476;28;20287;-77
2022/01/17 00:08:42;;;;;;;23.88;5.47;;;;;;;4.74;100.00;102875.56;1027928;28;20782;-77
2022/01/17 00:09:13;;;;;;;26.25;6.18;;;;;;;4.74;100.00;102878.22;1028345;28;20301;-77
2022/01/17 00:09:45;;;;;;;20.10;6.00;;;;;;;4.75;99.62;102871.97;1032136;28;20284;-77
2022/01/17 00:10:16;;;;;;;22.88;5.50;;;;;;;4.76;99.63;102868.34;1032051;28;20289;-77
2022/01/17 00:10:48;;;;;;;18.33;5.97;;;;;;;4.75;99.85;102877.25;1027754;28;20289;-77
2022/01/17 00:11:20;;;;;;;25.02;6.43;;;;;;;4.73;99.42;102879.19;1024118;29;20287;-77
2022/01/17 00:11:52;;;;;;;25.02;6.28;;;;;;;4.72;99.21;102873.06;1023369;29;20651;-77
2022/01/17 00:12:24;;;;;;;26.10;5.90;;;;;;;4.70;99.15;102879.44;1024785;28;20282;-77
2022/01/17 00:12:58;;;;;;;16.05;5.57;;;;;;;4.69;99.12;102877.75;1028564;28;20297;-77
2022/01/17 00:13:30;;;;;;;19.23;4.53;;;;;;;4.68;98.66;102876.91;1030880;28;20788;-78
2022/01/17 00:14:04;;;;;;;30.73;6.07;;;;;;;4.69;99.01;102872.47;1028358;28;20297;-78
2022/01/17 00:14:40;;;;;;;20.45;4.97;;;;;;;4.69;98.54;102880.41;1028102;28;20309;-77
2022/01/17 00:15:20;;;;;;;25.38;4.57;;;;;;;4.68;98.62;102876.09;1028190;28;20310;-78
2022/01/17 00:15:57;;;;;;;21.58;4.55;;;;;;;4.74;98.24;102875.56;1027868;28;20282;-77
2022/01/17 00:16:33;;;;;;;14.65;4.00;;;;;;;4.76;98.20;102876.28;1028042;28;20274;-77
2022/01/17 00:17:25;;;;;;;22.17;5.60;;;;;;;4.71;98.19;102875.81;1027467;28;20304;-78
2022/01/17 00:19:02;;;;;;;;;;;;;;;4.70;97.62;102868.88;1024645;29;20286;-77
2022/01/17 00:19:56;;;;;;;18.65;3.03;;;;;;;4.69;96.92;102875.13;1027926;28;20274;-78
2022/01/17 00:20:27;;;;;;;15.27;3.83;;;;;;;4.68;96.97;102873.44;1028203;28;20282;-76
2022/01/17 00:20:59;;;;;;;25.73;4.93;;;;;;;4.67;96.75;102872.59;1028343;28;20278;-77
2022/01/17 00:21:30;;;;;;;21.52;3.53;;;;;;;4.70;96.81;102868.88;1028252;28;20278;-77
2022/01/17 00:22:02;;;;;;;15.07;3.65;;;;;;;4.70;96.69;102874.16;1027895;28;20820;-77
2022/01/17 00:22:34;;;;;;;14.63;3.28;;;;;;;4.70;96.42;102876.78;1024015;29;20596;-77
2022/01/17 00:23:06;;;;;;;19.48;3.72;;;;;;;4.70;96.24;102880.28;1023777;29;20286;-78
2022/01/17 00:23:37;;;;;;;15.85;3.13;;;;;;;4.69;96.72;102888.31;1023878;28;21157;-78
2022/01/17 00:24:09;;;;;;;16.33;3.22;;;;;;;4.68;96.11;102886.66;1027903;28;20670;-78
2022/01/17 00:24:41;;;;;;;20.50;3.33;;;;;;;4.69;96.15;102888.31;1028206;28;20275;-78
2022/01/17 00:25:13;;;;;;;19.25;3.20;;;;;;;4.66;96.25;102884.13;1027929;28;20375;-78
2022/01/17 00:25:44;;;;;;;12.10;5.20;;;;;;;4.67;96.03;102891.09;1024033;29;20289;-78
2022/01/17 00:26:16;;;;;;;11.85;3.28;;;;;;;4.65;96.19;102885.91;1023994;29;20341;-78
2022/01/17 00:26:47;;;;;;;15.63;3.53;;;;;;;4.67;96.16;102884.97;1024193;28;20286;-78
2022/01/17 00:27:19;;;;;;;17.40;3.92;;;;;;;4.62;96.45;102883.53;1024609;28;20287;-78
2022/01/17 00:27:51;;;;;;;23.27;5.85;;;;;;;4.61;95.99;102876.56;1028055;28;20310;-78
2022/01/17 00:28:23;;;;;;;18.70;4.30;;;;;;;4.63;96.40;102874.63;1027872;28;20372;-78
2022/01/17 00:28:55;;;;;;;14.77;3.47;;;;;;;4.63;96.02;102876.44;1028524;28;20860;-78
2022/01/17 00:29:26;;;;;;;15.38;4.25;;;;;;;4.61;96.40;102876.56;1032348;28;20285;-78
2022/01/17 00:29:58;;;;;;;18.90;2.83;;;;;;;4.60;96.43;102880.19;1036127;28;20288;-78
2022/01/17 00:30:30;;;;;;;11.50;3.10;;;;;;;4.59;96.46;102878.50;1031878;28;20288;-78
2022/01/17 00:31:04;;;;;;;18.77;3.83;;;;;;;4.58;96.61;102882.09;1028104;28;20789;-78
2022/01/17 00:31:36;;;;;;;16.73;2.67;;;;;;;4.62;96.58;102883.53;1027322;28;20405;-78
2022/01/17 00:32:08;;;;;;;13.95;2.88;;;;;;;4.62;96.25;102888.81;1028797;28;20278;-78
2022/01/17 00:32:40;;;;;;;12.45;3.15;;;;;;;4.61;96.25;102886.28;1028881;28;20267;-78
2022/01/17 00:33:12;;;;;;;22.80;3.30;;;;;;;4.61;96.00;102888.94;1031882;28;20650;-78
2022/01/17 00:33:44;;;;;;;14.93;5.03;;;;;;;4.61;96.09;102886.28;1031739;28;20277;-78
2022/01/17 00:34:15;;;;;;;21.27;3.10;;;;;;;4.62;96.27;102883.53;1031614;28;20669;-78
2022/01/17 00:34:47;;;;;;;15.38;3.20;;;;;;;4.64;95.59;102886.03;1032074;28;20291;-78
2022/01/17 00:35:18;;;;;;;15.65;3.17;;;;;;;4.63;95.84;102874.63;1032358;28;20282;-78
2022/01/17 00:35:50;;;;;;;17.63;2.95;;;;;;;4.65;95.82;102883.25;1031860;28;20796;-78
2022/01/17 00:36:22;;;;;;;17.75;4.28;;;;;;;4.63;95.84;102885.19;1031949;28;20827;-78
2022/01/17 00:36:53;;;;;;;14.10;3.08;;;;;;;4.64;95.57;102880.75;1031712;28;20288;-78
2022/01/17 00:37:25;;;;;;;24.45;3.53;;;;;;;4.64;95.53;102884.22;1031969;28;20297;-78
2022/01/17 00:37:56;;;;;;;18.42;2.72;;;;;;;4.63;95.51;102884.34;1032291;28;20808;-78
2022/01/17 00:38:28;;;;;;;14.98;3.17;;;;;;;4.61;95.67;102895.03;1032276;28;20281;-78
2022/01/17 00:38:59;;;;;;;17.63;4.40;;;;;;;4.61;95.66;102902.13;1031783;28;20293;-78
2022/01/17 00:39:31;;;;;;;26.10;3.83;;;;;;;4.59;96.20;102894.34;1027753;28;20282;-78
2022/01/17 00:40:03;;;;;;;19.92;4.47;;;;;;;4.59;95.83;102899.63;1027928;28;20286;-78
2022/01/17 00:40:34;;;;;;;13.77;4.13;;;;;;;4.58;96.00;102903.22;1028520;28;20286;-78
2022/01/17 00:41:06;;;;;;;14.05;3.72;;;;;;;4.59;95.53;102898.78;1031766;28;20744;-78
2022/01/17 00:41:37;;;;;;;15.98;3.50;;;;;;;4.58;95.93;102899.75;1028506;28;20281;-78
2022/01/17 00:42:09;;;;;;;18.25;3.00;;;;;;;4.58;95.89;102900.56;1027273;28;20749;-78
2022/01/17 00:42:42;;;;;;;27.30;3.95;;;;;;;4.59;95.92;102898.78;1028058;28;20282;-78
2022/01/17 00:43:14;;;;;;;14.07;3.47;;;;;;;4.56;96.04;102905.16;1028750;28;20304;-79
2022/01/17 00:43:46;;;;;;;26.23;3.25;;;;;;;4.57;95.85;102901.53;1031759;28;20769;-78
2022/01/17 00:44:22;;;;;;;17.70;3.80;;;;;;;4.53;95.89;102902.75;1032352;28;20646;-78
2022/01/17 00:44:53;;;;;;;21.02;4.00;;;;;;;4.56;95.78;102902.50;1032199;28;20306;-78
2022/01/17 00:45:27;;;;;;;17.17;4.35;;;;;;;4.57;95.84;102898.91;1032123;28;20284;-79
2022/01/17 00:45:59;;;;;;;21.65;3.75;;;;;;;4.60;95.87;102906.56;1031692;28;20420;-79
2022/01/17 00:46:31;;;;;;;18.85;3.80;;;;;;;4.59;95.48;102907.53;1027973;28;20289;-78
2022/01/17 00:47:03;;;;;;;11.18;2.50;;;;;;;4.59;95.54;102904.91;1028925;28;20698;-79
2022/01/17 00:47:35;;;;;;;17.88;3.10;;;;;;;4.56;95.71;102899.88;1031936;28;20378;-78
2022/01/17 00:48:07;;;;;;;15.63;2.55;;;;;;;4.56;95.58;102909.59;1028671;28;20677;-79
2022/01/17 00:48:38;;;;;;;20.15;3.83;;;;;;;4.55;95.21;102900.84;1031700;28;20286;-78
2022/01/17 00:49:10;;;;;;;17.65;3.78;;;;;;;4.56;95.59;102893.75;1027824;28;20285;-78
2022/01/17 00:49:42;;;;;;;21.45;4.38;;;;;;;4.53;95.42;102897.50;1028474;28;20285;-78
2022/01/17 00:50:13;;;;;;;18.77;3.92;;;;;;;4.55;95.76;102898.19;1032052;28;20300;-79
2022/01/17 00:50:47;;;;;;;18.25;3.97;;;;;;;4.54;95.69;102895.69;1028499;28;20285;-79
2022/01/17 00:51:19;;;;;;;20.65;3.50;;;;;;;4.52;95.59;102893.19;1031801;28;20358;-78
2022/01/17 00:51:50;;;;;;;25.85;4.57;;;;;;;4.53;95.94;102886.09;1027373;28;20282;-78
2022/01/17 00:52:22;;;;;;;25.50;4.38;;;;;;;4.50;95.70;102895.09;1027729;28;20292;-78
2022/01/17 00:52:54;;;;;;;20.80;3.92;;;;;;;4.51;95.90;102891.50;1028526;28;20302;-78
2022/01/17 00:53:25;;;;;;;19.17;4.15;;;;;;;4.52;96.04;102898.44;1027848;28;20409;-78
2022/01/17 00:53:57;;;;;;;18.92;3.65;;;;;;;4.53;95.93;102889.56;1023467;29;20291;-78
2022/01/17 00:54:31;;;;;;;17.08;3.38;;;;;;;4.51;95.88;102895.94;1020499;29;20736;-78
2022/01/17 00:55:03;;;;;;;21.08;3.67;;;;;;;4.53;95.61;102897.50;1024527;28;20377;-78
2022/01/17 00:55:36;;;;;;;19.10;3.20;;;;;;;4.54;95.87;102891.25;1028862;28;20300;-78
2022/01/17 00:56:08;;;;;;;17.52;4.13;;;;;;;4.53;95.79;102897.50;1030977;28;20284;-78
2022/01/17 00:56:39;;;;;;;16.05;4.05;;;;;;;4.53;96.01;102900.13;1028185;28;20282;-78
2022/01/17 00:57:11;;;;;;;20.73;4.40;;;;;;;4.53;95.83;102894.00;1028042;28;20281;-78
2022/01/17 00:57:42;;;;;;;11.45;3.78;;;;;;;4.52;95.94;102900.25;1027722;28;20681;-78
2022/01/17 00:58:14;;;;;;;21.45;4.40;;;;;;;4.49;95.75;102893.44;1023990;29;20313;-78
2022/01/17 00:58:46;;;;;;;19.02;3.85;;;;;;;4.50;95.60;102889.81;1020357;29;20315;-78
2022/01/17 00:59:17;;;;;;;16.92;3.45;;;;;;;4.50;95.61;102894.25;1023857;29;20286;-78
2022/01/17 00:59:49;;;;;;;16.23;3.40;;;;;;;4.51;95.56;102891.50;1024340;28;20372;-78
2022/01/17 01:00:21;;;;;;;16.90;3.75;;;;;;;4.52;95.68;102897.63;1027800;28;20274;-78
2022/01/17 01:00:52;;;;;;;16.02;3.63;;;;;;;4.53;95.37;102889.56;1027866;28;20288;-79
2022/01/17 01:01:24;;;;;;;26.83;4.13;;;;;;;4.53;95.17;102894.84;1027754;28;20790;-77
2022/01/17 01:01:56;;;;;;;17.00;3.58;;;;;;;4.54;95.29;102891.25;1027983;28;20289;-77
2022/01/17 01:02:28;;;;;;;14.73;3.55;;;;;;;4.55;95.23;102894.72;1024434;28;20286;-77
2022/01/17 01:02:59;;;;;;;16.35;3.67;;;;;;;4.53;95.21;102897.50;1027717;28;20786;-77
2022/01/17 01:03:31;;;;;;;12.98;4.35;;;;;;;4.52;95.39;102892.34;1027611;28;20292;-77
2022/01/17 01:04:03;;;;;;;15.75;4.13;;;;;;;4.51;95.24;102891.50;1024105;28;20291;-77
2022/01/17 01:04:34;;;;;;;16.50;4.00;;;;;;;4.53;95.28;102894.84;1023943;29;20287;-77
2022/01/17 01:05:07;;;;;;;22.88;3.60;;;;;;;4.53;95.12;102900.13;1023834;29;20278;-77
2022/01/17 01:05:39;;;;;;;18.10;3.80;;;;;;;4.51;95.11;102896.78;1023467;29;20282;-77
2022/01/17 01:06:10;;;;;;;16.65;3.38;;;;;;;4.56;94.64;102899.03;1024802;28;20722;-77
2022/01/17 01:06:42;;;;;;;19.75;4.20;;;;;;;4.54;94.77;102895.69;1027642;28;20285;-77
2022/01/17 01:07:13;;;;;;;22.70;4.68;;;;;;;4.55;94.98;102892.91;1028003;28;20317;-77
2022/01/17 01:07:45;;;;;;;16.33;3.42;;;;;;;4.52;95.09;102893.19;1027737;28;20357;-77
2022/01/17 01:08:16;;;;;;;16.70;3.53;;;;;;;4.52;95.39;102900.25;1028484;28;20278;-77
2022/01/17 01:08:48;;;;;;;21.67;3.28;;;;;;;4.53;95.29;102897.50;1031697;28;20285;-77
2022/01/17 01:09:20;;;;;;;13.23;3.58;;;;;;;4.53;94.89;102907.22;1031581;28;20288;-77
2022/01/17 01:10:13;;;;;;;15.35;3.83;;;;;;;4.52;94.93;102909.00;1028213;28;20296;-77
2022/01/17 01:10:43;;;;;;;13.00;2.28;;;;;;;4.53;94.83;102905.41;1028299;28;20557;-77
2022/01/17 01:11:15;;;;;;;14.30;3.72;;;;;;;4.52;94.76;102900.25;1028070;28;20298;-77
2022/01/17 01:11:47;;;;;;;21.38;3.92;;;;;;;4.52;94.70;102897.63;1028248;28;20306;-77
2022/01/17 01:12:18;;;;;;;20.45;3.70;;;;;;;4.53;94.63;102905.41;1028215;28;20312;-77
2022/01/17 01:12:51;;;;;;;16.30;3.67;;;;;;;4.52;94.43;102902.91;1027846;28;20288;-77
2022/01/17 01:13:24;;;;;;;19.10;4.43;;;;;;;4.52;94.53;102906.38;1031729;28;20285;-77
2022/01/17 01:13:56;;;;;;;15.57;3.58;;;;;;;4.52;94.60;102898.44;1027943;28;20294;-77
2022/01/17 01:14:27;;;;;;;13.82;3.83;;;;;;;4.50;94.98;102910.94;1027465;28;20297;-77
2022/01/17 01:15:00;;;;;;;14.63;3.08;;;;;;;4.48;94.83;102912.88;1023775;28;20282;-77
2022/01/17 01:16:23;;;;;;;15.15;3.22;;;;;;;4.51;94.85;102914.41;1023911;29;20470;-77
2022/01/17 01:16:57;;;;;;;21.00;4.28;;;;;;;4.53;94.51;102912.47;1023812;28;20294;-77
2022/01/17 01:17:37;;;;;;;22.20;3.78;;;;;;;4.54;94.19;102915.00;1031171;28;20292;-77
2022/01/17 01:19:26;;;;;;;19.77;3.47;;;;;;;4.55;94.10;102897.34;1031431;28;20050;-77
2022/01/17 01:27:53;;;;;;;15.38;2.88;;;;;;;4.44;94.61;102879.78;1027837;28;20284;-77
2022/01/17 01:28:25;;;;;;;;;;;;;;;4.44;94.47;102879.78;1028223;28;20357;-77
2022/01/17 01:28:56;;;;;;;;;;;;;;;4.44;94.33;102885.06;1028182;28;19922;-77
2022/01/17 01:29:28;;;;;;;;;;;;;;;4.44;94.28;102885.06;1031813;28;19922;-77
2022/01/17 01:30:01;;;;;;;13.60;2.10;;;;;;;4.44;94.42;102876.31;1027905;28;20305;-77
2022/01/17 01:30:38;;;;;;;12.00;2.28;;;;;;;4.44;94.31;102874.50;1027654;28;20282;-77
2022/01/17 01:31:27;;;;;;;14.48;2.80;;;;;;;4.44;94.19;102879.78;1027819;28;20282;-77
2022/01/17 01:32:03;;;;;;;11.43;2.00;;;;;;;4.43;94.43;102872.00;1027904;28;20290;-77
2022/01/17 01:32:43;;;;;;;18.15;3.22;;;;;;;4.45;94.29;102876.19;1027748;28;20765;-77
2022/01/17 01:33:26;;;;;;;10.02;2.83;;;;;;;4.44;94.46;102878.94;1027794;28;20278;-77
2022/01/17 01:34:03;;;;;;;18.23;2.67;;;;;;;4.42;94.24;102876.44;1027915;28;20650;-77
2022/01/17 01:34:40;;;;;;;12.50;2.33;;;;;;;4.42;94.40;102879.06;1031561;28;20280;-77
2022/01/17 01:35:14;;;;;;;21.38;3.03;;;;;;;4.42;94.43;102880.88;1031704;28;20282;-76
2022/01/17 01:35:47;;;;;;;19.23;3.65;;;;;;;4.42;94.41;102880.88;1027522;28;20281;-76
2022/01/17 01:36:26;;;;;;;19.15;4.05;;;;;;;4.40;94.29;102878.38;1027769;28;20300;-77
2022/01/17 01:36:57;;;;;;;20.38;3.15;;;;;;;4.39;94.63;102884.59;1027756;28;20282;-78
2022/01/17 01:37:29;;;;;;;23.77;3.88;;;;;;;4.40;94.52;102883.63;1029555;28;20288;-77
2022/01/17 01:38:01;;;;;;;17.67;2.85;;;;;;;4.40;94.24;102899.47;1027733;28;20292;-77
2022/01/17 01:38:33;;;;;;;20.88;3.40;;;;;;;4.39;94.14;102892.53;1027567;28;20281;-78
2022/01/17 01:39:06;;;;;;;16.15;2.75;;;;;;;4.39;94.20;102903.06;1027777;28;20282;-77
2022/01/17 01:39:38;;;;;;;17.27;3.17;;;;;;;4.38;94.34;102906.66;1028325;28;20282;-77
2022/01/17 01:40:10;;;;;;;21.17;4.10;;;;;;;4.39;94.47;102913.63;1027791;28;20657;-78
2022/01/17 01:40:42;;;;;;;26.80;4.05;;;;;;;4.40;94.30;102909.19;1023681;29;20283;-78
2022/01/17 01:41:13;;;;;;;10.85;2.80;;;;;;;4.38;94.22;102908.44;1023851;29;20287;-77
2022/01/17 01:41:45;;;;;;;12.95;2.55;;;;;;;4.40;94.26;102917.09;1020358;28;20307;-77
2022/01/17 01:42:18;;;;;;;18.73;3.15;;;;;;;4.39;93.96;102918.91;1027429;28;20301;-78
2022/01/17 01:42:52;;;;;;;14.80;2.47;;;;;;;4.39;94.23;102908.34;1027740;28;20274;-77
2022/01/17 01:43:24;;;;;;;21.05;3.63;;;;;;;4.38;94.35;102906.66;1027664;28;20320;-78
2022/01/17 01:43:55;;;;;;;14.02;3.03;;;;;;;4.37;94.31;102899.69;1027868;28;20369;-78
2022/01/17 01:44:27;;;;;;;24.90;3.72;;;;;;;4.37;94.41;102899.69;1027209;28;20336;-77
2022/01/17 01:45:01;;;;;;;14.48;2.70;;;;;;;4.38;94.18;102901.38;1027755;28;20282;-78
2022/01/17 01:45:32;;;;;;;8.40;2.10;;;;;;;4.39;94.54;102892.53;1028323;28;20288;-78
2022/01/17 01:46:05;;;;;;;16.27;3.70;;;;;;;4.39;94.61;102903.06;1031652;28;20293;-78
2022/01/17 01:46:37;;;;;;;25.63;3.90;;;;;;;4.37;94.66;102898.84;1027703;28;20333;-78
2022/01/17 01:47:09;;;;;;;18.00;3.20;;;;;;;4.38;94.67;102900.53;1027308;28;20278;-78
2022/01/17 01:47:41;;;;;;;15.13;5.65;;;;;;;4.39;94.85;102897.78;1027737;28;20816;-78
2022/01/17 01:48:13;;;;;;;17.80;3.63;;;;;;;4.38;94.97;102901.38;1028632;28;20670;-77
2022/01/17 01:48:45;;;;;;;17.13;3.90;;;;;;;4.37;94.94;102901.50;1031684;28;20295;-78
2022/01/17 01:49:17;;;;;;;18.35;3.53;;;;;;;4.36;94.86;102892.75;1031728;28;20773;-77
2022/01/17 01:49:49;;;;;;;16.48;5.30;;;;;;;4.37;94.76;102894.41;1031605;28;20668;-78
2022/01/17 01:50:22;;;;;;;16.38;4.20;;;;;;;4.37;94.95;102889.13;1031734;28;20285;-78
2022/01/17 01:50:53;;;;;;;21.15;3.30;;;;;;;4.34;95.21;102887.59;1030848;28;20776;-78
2022/01/17 01:51:25;;;;;;;19.08;3.72;;;;;;;4.39;94.67;102887.25;1028098;28;20631;-78
2022/01/17 01:51:56;;;;;;;16.67;3.20;;;;;;;4.40;94.72;102888.06;1028003;28;20294;-77
2022/01/17 01:52:28;;;;;;;19.30;2.78;;;;;;;4.39;95.28;102886.41;1027371;28;20713;-77
2022/01/17 01:52:59;;;;;;;26.98;4.05;;;;;;;4.38;94.71;102885.53;1027904;28;20290;-78
2022/01/17 01:53:31;;;;;;;20.58;4.53;;;;;;;4.34;94.42;102886.75;1027839;28;20297;-78
2022/01/17 01:54:03;;;;;;;22.13;3.72;;;;;;;4.33;94.45;102879.81;1028860;28;20305;-77
2022/01/17 01:54:35;;;;;;;20.17;4.43;;;;;;;4.35;94.47;102886.63;1023690;29;20282;-77
2022/01/17 01:55:10;;;;;;;14.10;2.95;;;;;;;4.37;94.57;102894.41;1023515;29;20290;-78
2022/01/17 01:55:41;;;;;;;22.13;4.28;;;;;;;4.34;94.55;102892.03;1016889;29;20288;-78
2022/01/17 01:56:13;;;;;;;10.57;3.30;;;;;;;4.38;94.40;102885.53;1020558;29;20389;-78
2022/01/17 01:56:47;;;;;;;20.83;3.28;;;;;;;4.34;94.29;102889.41;1023745;29;20409;-78
2022/01/17 01:57:18;;;;;;;17.95;3.78;;;;;;;4.33;94.58;102893.00;1023680;29;20282;-78
2022/01/17 01:57:50;;;;;;;18.27;3.47;;;;;;;4.30;94.53;102896.72;1020315;29;20283;-78
2022/01/17 01:58:23;;;;;;;18.20;4.28;;;;;;;4.29;94.61;102896.84;1024482;28;20279;-78
2022/01/17 01:58:54;;;;;;;20.25;3.70;;;;;;;4.30;94.43;102906.44;1023623;29;20322;-78
2022/01/17 01:59:26;;;;;;;12.48;3.65;;;;;;;4.28;94.66;102900.44;1024329;28;20285;-78
2022/01/17 01:59:58;;;;;;;26.75;4.43;;;;;;;4.28;94.06;102897.81;1027766;28;20289;-77
2022/01/17 02:00:32;;;;;;;19.95;3.95;;;;;;;4.26;94.26;102905.84;1027672;28;20868;-78
2022/01/17 02:01:04;;;;;;;20.23;2.85;;;;;;;4.26;94.57;102907.66;1024572;28;20398;-78
2022/01/17 02:01:35;;;;;;;16.58;3.90;;;;;;;4.26;94.45;102912.94;1027372;28;20429;-78
2022/01/17 02:02:08;;;;;;;19.40;3.45;;;;;;;4.26;94.48;102913.75;1023506;29;20315;-77
2022/01/17 02:02:40;;;;;;;22.52;3.67;;;;;;;4.25;94.17;102921.81;1020247;29;20696;-77
2022/01/17 02:03:11;;;;;;;17.08;3.25;;;;;;;4.24;94.28;102920.13;1023671;29;20829;-78
2022/01/17 02:03:43;;;;;;;19.13;4.20;;;;;;;4.23;94.17;102918.44;1024129;28;20291;-78
2022/01/17 02:04:15;;;;;;;20.00;3.92;;;;;;;4.24;94.37;102920.97;1027520;28;20290;-78
2022/01/17 02:04:47;;;;;;;22.73;4.03;;;;;;;4.26;94.28;102923.47;1027745;28;20273;-77
2022/01/17 02:05:18;;;;;;;19.85;4.13;;;;;;;4.23;94.34;102924.56;1023460;29;20290;-77
2022/01/17 02:05:50;;;;;;;19.58;3.75;;;;;;;4.24;94.30;102925.41;1023722;29;20279;-78
2022/01/17 02:06:21;;;;;;;22.58;3.80;;;;;;;4.24;94.45;102928.03;1024172;28;20648;-78
2022/01/17 02:06:53;;;;;;;23.50;3.45;;;;;;;4.25;94.36;102932.34;1031616;28;20320;-77
2022/01/17 02:07:25;;;;;;;24.27;3.47;;;;;;;4.23;94.76;102934.28;1035299;28;20397;-77
2022/01/17 02:07:56;;;;;;;19.25;3.33;;;;;;;4.22;94.11;102937.88;1032027;28;20296;-78
2022/01/17 02:08:31;;;;;;;20.95;3.58;;;;;;;4.22;94.15;102932.59;1031760;28;20282;-78
2022/01/17 02:09:04;;;;;;;8.80;2.65;;;;;;;4.22;94.30;102937.88;1032170;28;20304;-78
2022/01/17 02:09:37;;;;;;;14.50;3.50;;;;;;;4.23;94.27;102935.13;1031379;28;20756;-78
2022/01/17 02:10:10;;;;;;;18.45;3.60;;;;;;;4.22;94.35;102924.69;1027719;28;20357;-78
2022/01/17 02:10:42;;;;;;;20.00;4.20;;;;;;;4.23;94.25;102939.56;1027564;28;20285;-78
2022/01/17 02:11:13;;;;;;;22.42;3.88;;;;;;;4.23;94.13;102929.00;1028067;28;20349;-77
2022/01/17 02:11:47;;;;;;;18.52;3.53;;;;;;;4.24;93.66;102922.75;1027688;28;20282;-77
2022/01/17 02:12:21;;;;;;;22.92;3.10;;;;;;;4.22;94.17;102922.88;1027401;28;20302;-78
2022/01/17 02:12:53;;;;;;;16.50;3.10;;;;;;;4.23;94.04;102923.72;1024688;28;20279;-78
2022/01/17 02:13:26;;;;;;;17.05;3.22;;;;;;;4.24;94.31;102922.75;1028556;28;20306;-78
2022/01/17 02:13:57;;;;;;;18.33;3.67;;;;;;;4.25;93.84;102927.91;1027790;28;20378;-78
2022/01/17 02:14:29;;;;;;;21.60;3.38;;;;;;;4.27;93.81;102919.88;1028344;28;20770;-78
2022/01/17 02:15:03;;;;;;;18.88;4.05;;;;;;;4.27;93.85;102925.16;1027707;28;20305;-78
2022/01/17 02:15:37;;;;;;;19.30;3.47;;;;;;;4.25;93.73;102929.72;1028345;28;20324;-77
2022/01/17 02:16:11;;;;;;;17.27;3.33;;;;;;;4.31;93.50;102931.84;1031286;28;20777;-77
2022/01/17 02:16:44;;;;;;;20.55;3.45;;;;;;;4.28;93.94;102924.19;1023734;29;20286;-77
2022/01/17 02:17:19;;;;;;;14.07;3.53;;;;;;;4.27;93.68;102922.50;1023480;29;20310;-78
2022/01/17 02:17:55;;;;;;;16.95;2.88;;;;;;;4.27;93.30;102919.88;1023648;29;20283;-78
2022/01/17 02:18:30;;;;;;;20.70;3.63;;;;;;;4.28;93.09;102918.91;1027166;28;20279;-78
2022/01/17 02:19:02;;;;;;;17.30;4.03;;;;;;;4.28;93.22;102913.63;1023599;29;20286;-77
2022/01/17 02:19:34;;;;;;;11.98;2.83;;;;;;;4.30;92.98;102917.81;1023157;29;20278;-78
2022/01/17 02:20:09;;;;;;;21.08;3.88;;;;;;;4.29;93.32;102918.78;1024450;28;20323;-77
2022/01/17 02:20:44;;;;;;;17.38;3.45;;;;;;;4.27;93.25;102919.88;1030172;28;20653;-78
2022/01/17 02:21:49;;;;;;;17.85;3.95;;;;;;;4.26;93.33;102912.94;1031928;28;20286;-78
2022/01/17 02:22:21;;;;;;;19.45;3.80;;;;;;;4.24;93.25;102925.41;1031519;28;20420;-78
2022/01/17 02:22:53;;;;;;;26.48;3.85;;;;;;;4.23;93.47;102919.28;1031547;28;20281;-78
2022/01/17 02:23:24;;;;;;;14.35;3.78;;;;;;;4.23;93.75;102921.09;1031608;28;20289;-78
2022/01/17 02:23:57;;;;;;;13.50;3.92;;;;;;;4.21;93.45;102915.09;1028062;28;20286;-77
2022/01/17 02:24:28;;;;;;;19.65;4.53;;;;;;;4.22;93.38;102912.34;1027711;28;20282;-78
2022/01/17 02:25:00;;;;;;;14.52;3.63;;;;;;;4.20;93.58;102911.63;1027349;28;20290;-78
2022/01/17 02:25:32;;;;;;;21.67;3.28;;;;;;;4.18;93.70;102912.72;1028197;28;20285;-77
2022/01/17 02:26:04;;;;;;;21.20;4.10;;;;;;;4.17;93.54;102917.16;1028069;28;20296;-77
2022/01/17 02:26:35;;;;;;;12.65;3.05;;;;;;;4.17;93.89;102918.94;1031460;28;20687;-77
2022/01/17 02:27:07;;;;;;;28.48;3.95;;;;;;;4.15;94.29;102921.72;1031576;28;20281;-78
2022/01/17 02:27:39;;;;;;;21.73;3.75;;;;;;;4.16;94.32;102917.28;1027930;28;20631;-78
2022/01/17 02:28:10;;;;;;;21.02;5.05;;;;;;;4.16;94.49;102917.28;1031684;28;20642;-78
2022/01/17 02:28:46;;;;;;;14.95;4.45;;;;;;;4.16;94.02;102918.13;1031379;28;20866;-78
2022/01/17 02:29:18;;;;;;;18.10;4.15;;;;;;;4.16;94.58;102917.28;1028746;28;20270;-78
2022/01/17 02:29:50;;;;;;;18.73;4.18;;;;;;;4.16;94.39;102914.63;1027334;28;20293;-78
2022/01/17 02:30:23;;;;;;;19.77;4.25;;;;;;;4.18;94.36;102915.34;1027483;28;20289;-78
2022/01/17 02:30:54;;;;;;;19.02;3.35;;;;;;;4.18;94.56;102900.38;1024248;28;20274;-78
2022/01/17 02:31:26;;;;;;;19.73;3.90;;;;;;;4.20;94.51;102901.06;1025368;28;20309;-78
2022/01/17 02:31:58;;;;;;;14.77;3.22;;;;;;;4.23;94.63;102900.00;1023199;28;20357;-78
2022/01/17 02:32:29;;;;;;;18.33;4.45;;;;;;;4.21;94.85;102901.91;1027919;28;20296;-77
2022/01/17 02:33:02;;;;;;;28.33;4.47;;;;;;;4.21;94.49;102900.13;1031613;28;20295;-77
2022/01/17 02:33:34;;;;;;;19.20;4.07;;;;;;;4.21;94.47;102901.91;1026784;28;20278;-77
2022/01/17 02:34:06;;;;;;;21.83;3.97;;;;;;;4.23;94.51;102892.06;1024366;28;20354;-77
2022/01/17 02:34:44;;;;;;;23.73;5.72;;;;;;;4.23;94.34;102897.34;1027528;28;20324;-78
2022/01/17 02:35:21;;;;;;;24.17;4.38;;;;;;;4.23;94.24;102895.56;1024962;28;20317;-78
2022/01/17 02:35:52;;;;;;;20.52;3.53;;;;;;;4.23;94.34;102898.19;1029768;28;20300;-78
2022/01/17 02:36:24;;;;;;;20.60;4.00;;;;;;;4.26;93.91;102891.81;1027576;28;20278;-78
2022/01/17 02:36:56;;;;;;;15.55;3.50;;;;;;;4.24;93.85;102896.38;1024856;28;20295;-78
2022/01/17 02:37:27;;;;;;;26.05;4.15;;;;;;;4.23;93.85;102892.06;1023382;29;20799;-78
2022/01/17 02:37:58;;;;;;;17.42;3.80;;;;;;;4.23;94.03;102892.06;1024031;28;20286;-78
2022/01/17 02:38:30;;;;;;;16.15;3.15;;;;;;;4.24;93.97;102888.47;1027968;28;20286;-78
2022/01/17 02:39:03;;;;;;;16.70;3.65;;;;;;;4.23;94.17;102889.44;1028021;28;20812;-77
2022/01/17 02:39:35;;;;;;;22.25;4.82;;;;;;;4.24;93.95;102899.03;1027506;28;20310;-78
2022/01/17 02:40:07;;;;;;;23.33;3.88;;;;;;;4.20;94.18;102909.00;1027333;28;20282;-78
2022/01/17 02:40:39;;;;;;;18.08;3.65;;;;;;;4.20;94.02;102908.16;1024416;28;20283;-77
2022/01/17 02:41:11;;;;;;;21.23;4.20;;;;;;;4.21;94.02;102909.81;1024100;28;20310;-77
2022/01/17 02:41:46;;;;;;;18.70;4.32;;;;;;;4.16;93.99;102912.84;1023592;29;20282;-78
2022/01/17 02:42:19;;;;;;;15.43;3.58;;;;;;;4.18;94.06;102912.72;1020633;29;20358;-77
2022/01/17 02:43:02;;;;;;;24.20;4.55;;;;;;;4.18;94.32;102910.06;1024820;28;20640;-77
2022/01/17 02:43:34;;;;;;;18.55;3.28;;;;;;;4.18;93.74;102916.19;1029503;28;20278;-78
2022/01/17 02:44:07;;;;;;;20.52;4.90;;;;;;;4.20;94.13;102923.97;1029529;28;20738;-77